Time;durP1;ratioP1;P1;durP2;ratioP2;P2;SDS_P1;SDS_P2;PMS_P1;PMS_P2;Temp;Humidity;BMP_temperature;BMP_pressure;BME280_temperature;BME280_humidity;BME280_pressure;Samples;Min_cycle;Max_cycle;Signal;HPM_P1;HPM_P2
2021/12/24 00:01:11;;;;;;;38.33;22.23;;;;;;;;;;723959;189;918682;-62
2021/12/24 00:03:37;;;;;;;32.30;20.03;;;;;;;;;;727230;189;918777;-62
2021/12/24 00:06:02;;;;;;;37.35;20.73;;;;;;;;;;725990;189;919403;-62
2021/12/24 00:08:28;;;;;;;31.43;16.67;;;;;;;;;;729017;189;919231;-63
2021/12/24 00:11:00;;;;;;;33.27;16.20;;;;;;;;;;732660;189;919464;-63
2021/12/24 00:13:23;;;;;;;33.37;16.43;;;;;;;;;;723666;189;918704;-62
2021/12/24 00:15:53;;;;;;;31.77;18.10;;;;;;;;;;724682;188;917477;-63
2021/12/24 00:36:18;;;;;;;31.93;19.27;;;;;;;;;;717172;193;918140;-61
2021/12/24 00:38:44;;;;;;;27.03;15.30;;;;;;;;;;723230;189;919866;-62
2021/12/24 00:41:10;;;;;;;35.40;18.07;;;;;;;;;;720996;189;1020444;-62
2021/12/24 00:43:35;;;;;;;30.33;18.20;;;;;;;;;;726364;189;917418;-62
2021/12/24 00:46:01;;;;;;;27.13;16.35;;;;;;;;;;732564;189;919243;-62
2021/12/24 00:48:27;;;;;;;34.83;19.60;;;;;;;;;;728819;189;918375;-62
2021/12/24 00:51:18;;;;;;;29.20;17.43;;;;;;;;;;726524;189;1022883;-62
2021/12/24 00:55:54;;;;;;;22.97;14.80;;;;;;;;;;737465;189;919119;-61
2021/12/24 00:58:20;;;;;;;17.60;10.57;;;;;;;;;;721194;189;919049;-62
2021/12/24 01:00:45;;;;;;;23.33;13.70;;;;;;;;;;727857;189;920016;-62
2021/12/24 01:03:11;;;;;;;28.33;17.30;;;;;;;;;;727421;188;919347;-62
2021/12/24 01:05:37;;;;;;;16.13;11.13;;;;;;;;;;724526;189;918938;-63
2021/12/24 01:08:03;;;;;;;18.10;10.48;;;;;;;;;;730920;189;1021454;-63
2021/12/24 01:10:28;;;;;;;20.43;9.80;;;;;;;;;;729744;189;918550;-63
2021/12/24 01:12:54;;;;;;;25.97;16.90;;;;;;;;;;722274;189;918913;-63
2021/12/24 01:15:20;;;;;;;21.10;12.03;;;;;;;;;;720641;189;919514;-66
2021/12/24 01:17:56;;;;;;;25.50;15.30;;;;;;;;;;724919;189;918738;-63
2021/12/24 01:20:22;;;;;;;22.33;13.33;;;;;;;;;;726673;189;1021334;-62
2021/12/24 01:23:15;;;;;;;36.40;14.10;;;;;;;;;;720563;188;918460;-61
2021/12/24 01:25:15;;;;;;;21.08;13.20;;;;;;;;;;726675;189;918630;-61
2021/12/24 01:28:00;;;;;;;23.43;16.10;;;;;;;;;;733155;189;918935;-62
2021/12/24 01:37:51;;;;;;;17.00;10.50;;;;;;;;;;726944;189;919506;-63
2021/12/24 01:42:45;;;;;;;29.20;18.87;;;;;;;;;;718907;193;918906;-62
2021/12/24 01:45:15;;;;;;;26.73;17.17;;;;;;;;;;712744;193;919663;-62
2021/12/24 01:47:41;;;;;;;36.03;20.70;;;;;;;;;;716079;193;919499;-62
2021/12/24 01:50:07;;;;;;;20.20;14.03;;;;;;;;;;739039;189;919718;-62
2021/12/24 01:52:33;;;;;;;20.17;13.57;;;;;;;;;;728760;190;918334;-62
2021/12/24 01:54:59;;;;;;;25.67;12.97;;;;;;;;;;724789;189;919590;-62
2021/12/24 01:57:25;;;;;;;30.13;18.10;;;;;;;;;;725011;189;919387;-63
2021/12/24 01:59:51;;;;;;;42.37;23.50;;;;;;;;;;733304;189;918618;-62
2021/12/24 02:02:16;;;;;;;32.87;19.43;;;;;;;;;;723997;189;920526;-62
2021/12/24 02:04:42;;;;;;;35.63;21.30;;;;;;;;;;725707;189;920910;-62
2021/12/24 02:07:08;;;;;;;37.27;17.80;;;;;;;;;;730421;189;919145;-62
2021/12/24 02:09:36;;;;;;;42.50;23.33;;;;;;;;;;717726;189;919171;-62
2021/12/24 02:12:01;;;;;;;28.00;18.50;;;;;;;;;;727022;189;919593;-63
2021/12/24 02:14:34;;;;;;;29.90;15.20;;;;;;;;;;729597;189;919134;-63
2021/12/24 02:17:19;;;;;;;21.33;11.80;;;;;;;;;;720877;189;919756;-62
2021/12/24 02:29:27;;;;;;;18.10;12.93;;;;;;;;;;732157;187;920285;-63
2021/12/24 02:31:53;;;;;;;14.67;8.07;;;;;;;;;;725054;189;919834;-63
2021/12/24 02:34:18;;;;;;;29.23;12.80;;;;;;;;;;734493;189;921117;-63
2021/12/24 02:36:44;;;;;;;24.17;11.10;;;;;;;;;;722431;189;919606;-64
2021/12/24 02:39:10;;;;;;;18.57;12.47;;;;;;;;;;729645;189;919144;-63
2021/12/24 02:41:36;;;;;;;15.17;6.53;;;;;;;;;;720425;189;921780;-62
2021/12/24 02:44:02;;;;;;;26.50;15.77;;;;;;;;;;735554;189;920346;-63
2021/12/24 02:46:35;;;;;;;42.63;20.70;;;;;;;;;;725803;189;920660;-62
2021/12/24 02:49:04;;;;;;;35.87;18.77;;;;;;;;;;723538;189;911737;-62
2021/12/24 02:53:58;;;;;;;27.37;14.20;;;;;;;;;;730478;189;913883;-62
2021/12/24 02:56:25;;;;;;;30.63;18.37;;;;;;;;;;731297;189;916091;-61
2021/12/24 02:58:49;;;;;;;27.67;15.88;;;;;;;;;;729655;189;915594;-62
2021/12/24 03:01:15;;;;;;;42.07;19.97;;;;;;;;;;733403;189;919451;-63
2021/12/24 03:03:42;;;;;;;29.50;16.87;;;;;;;;;;726603;189;919076;-62
2021/12/24 03:06:06;;;;;;;27.70;15.07;;;;;;;;;;722605;189;920255;-62
2021/12/24 03:08:32;;;;;;;27.00;17.53;;;;;;;;;;725999;189;919419;-62
2021/12/24 03:10:59;;;;;;;37.13;18.77;;;;;;;;;;717066;190;918577;-63
2021/12/24 03:13:24;;;;;;;28.73;13.13;;;;;;;;;;721601;190;918466;-63
2021/12/24 03:15:51;;;;;;;34.00;17.47;;;;;;;;;;725807;189;919815;-61
2021/12/24 03:18:22;;;;;;;28.20;14.40;;;;;;;;;;731811;189;918858;-62
2021/12/24 03:20:42;;;;;;;27.53;15.57;;;;;;;;;;722514;189;921603;-63
2021/12/24 03:23:21;;;;;;;41.93;21.23;;;;;;;;;;730354;189;918387;-62
2021/12/24 03:25:34;;;;;;;33.70;19.83;;;;;;;;;;720224;189;918270;-62
2021/12/24 03:28:00;;;;;;;39.93;21.40;;;;;;;;;;724887;189;919810;-62
2021/12/24 03:30:26;;;;;;;39.25;18.45;;;;;;;;;;727412;189;1022632;-63
2021/12/24 03:32:52;;;;;;;33.83;19.70;;;;;;;;;;731945;189;912628;-62
2021/12/24 03:35:17;;;;;;;33.93;18.37;;;;;;;;;;722739;189;915853;-64
2021/12/24 03:37:43;;;;;;;31.50;18.63;;;;;;;;;;717789;191;916282;-63
2021/12/24 03:40:09;;;;;;;41.23;23.67;;;;;;;;;;719435;189;954538;-64
2021/12/24 03:42:38;;;;;;;30.70;17.80;;;;;;;;;;735762;189;912375;-64
2021/12/24 03:45:17;;;;;;;39.90;22.20;;;;;;;;;;735465;189;919668;-63
2021/12/24 03:47:34;;;;;;;41.47;22.47;;;;;;;;;;734998;186;629631;-63
2021/12/24 03:49:56;;;;;;;35.97;20.87;;;;;;;;;;729363;189;636620;-63
2021/12/24 03:54:57;;;;;;;37.60;22.40;;;;;;;;;;721382;189;918498;-65
2021/12/24 03:57:23;;;;;;;36.70;20.27;;;;;;;;;;723906;189;918304;-64
2021/12/24 03:59:49;;;;;;;47.77;23.07;;;;;;;;;;739519;189;919185;-63
2021/12/24 04:02:15;;;;;;;33.57;17.27;;;;;;;;;;731039;189;919453;-64
2021/12/24 04:04:41;;;;;;;42.70;22.33;;;;;;;;;;723119;189;919462;-64
2021/12/24 04:07:06;;;;;;;46.50;24.00;;;;;;;;;;735882;189;918720;-64
2021/12/24 04:09:33;;;;;;;37.87;21.13;;;;;;;;;;726754;189;919146;-65
2021/12/24 04:11:58;;;;;;;32.57;18.53;;;;;;;;;;728320;189;990415;-65
2021/12/24 04:14:24;;;;;;;44.87;21.67;;;;;;;;;;729244;189;928422;-65
2021/12/24 04:16:50;;;;;;;31.90;16.57;;;;;;;;;;727658;189;952316;-65
2021/12/24 04:24:50;;;;;;;42.10;22.57;;;;;;;;;;708283;194;918846;-66
2021/12/24 04:26:53;;;;;;;47.37;25.70;;;;;;;;;;727758;191;919241;-66
2021/12/24 04:29:19;;;;;;;48.33;26.90;;;;;;;;;;716938;192;919324;-66
2021/12/24 04:31:54;;;;;;;50.83;26.37;;;;;;;;;;717108;188;918444;-66
2021/12/24 04:34:13;;;;;;;47.10;27.90;;;;;;;;;;730149;190;918368;-66
2021/12/24 04:37:10;;;;;;;49.03;25.75;;;;;;;;;;725733;189;919721;-66
2021/12/24 04:39:35;;;;;;;44.73;26.17;;;;;;;;;;718059;190;918712;-68
2021/12/24 04:51:58;;;;;;;45.90;25.20;;;;;;;;;;722105;189;919699;-69
2021/12/24 05:04:30;;;;;;;33.80;13.77;;;;;;;;;;727959;189;919615;-68
2021/12/24 05:06:57;;;;;;;43.73;20.47;;;;;;;;;;726639;189;920305;-68
2021/12/24 05:09:22;;;;;;;54.37;26.47;;;;;;;;;;722406;189;916218;-68
2021/12/24 05:11:43;;;;;;;43.50;22.60;;;;;;;;;;729326;186;914925;-68
2021/12/24 05:14:14;;;;;;;36.33;19.63;;;;;;;;;;729996;190;919207;-69
2021/12/24 05:16:45;;;;;;;40.53;25.33;;;;;;;;;;727104;190;918622;-66
2021/12/24 05:21:47;;;;;;;48.47;27.47;;;;;;;;;;729841;189;918254;-69
2021/12/24 05:24:13;;;;;;;49.17;27.90;;;;;;;;;;721374;193;1182354;-69
2021/12/24 05:26:39;;;;;;;53.90;25.95;;;;;;;;;;706081;197;919352;-68
2021/12/24 05:29:05;;;;;;;45.43;29.20;;;;;;;;;;710817;194;917452;-67
2021/12/24 05:31:31;;;;;;;47.57;24.87;;;;;;;;;;710168;194;937369;-67
2021/12/24 05:33:56;;;;;;;38.23;21.20;;;;;;;;;;717065;189;1021427;-67
2021/12/24 05:36:22;;;;;;;53.33;24.40;;;;;;;;;;735382;189;918676;-68
2021/12/24 05:38:48;;;;;;;54.90;30.20;;;;;;;;;;718957;189;918283;-68
2021/12/24 05:41:14;;;;;;;54.40;29.53;;;;;;;;;;724601;189;919979;-68
2021/12/24 05:43:40;;;;;;;46.20;24.30;;;;;;;;;;728970;189;928515;-66
2021/12/24 05:46:06;;;;;;;32.57;19.40;;;;;;;;;;728712;189;936697;-67
2021/12/24 05:48:32;;;;;;;48.10;26.17;;;;;;;;;;726694;189;1020896;-67
2021/12/24 05:50:57;;;;;;;53.87;24.00;;;;;;;;;;725497;186;1014101;-66
2021/12/24 05:53:23;;;;;;;47.20;25.57;;;;;;;;;;728213;189;922143;-66
2021/12/24 05:55:49;;;;;;;28.10;15.00;;;;;;;;;;723874;189;922843;-66
2021/12/24 05:58:15;;;;;;;41.57;23.50;;;;;;;;;;724534;189;920711;-66
2021/12/24 06:00:43;;;;;;;50.13;26.03;;;;;;;;;;728867;189;914365;-66
2021/12/24 06:03:07;;;;;;;54.55;29.60;;;;;;;;;;729100;189;915087;-66
2021/12/24 06:05:33;;;;;;;61.17;29.77;;;;;;;;;;727105;189;922945;-67
2021/12/24 06:07:59;;;;;;;73.23;32.20;;;;;;;;;;727746;189;916520;-66
2021/12/24 06:10:25;;;;;;;55.57;30.80;;;;;;;;;;730011;189;912783;-67
2021/12/24 06:12:51;;;;;;;51.50;28.57;;;;;;;;;;721090;189;1017002;-68
2021/12/24 06:15:22;;;;;;;51.20;26.13;;;;;;;;;;727221;189;915769;-66
2021/12/24 06:17:43;;;;;;;51.33;28.87;;;;;;;;;;725493;189;920463;-66
2021/12/24 06:20:10;;;;;;;68.00;30.90;;;;;;;;;;727065;189;916878;-67
2021/12/24 06:22:35;;;;;;;63.80;31.37;;;;;;;;;;723046;189;918414;-66
2021/12/24 06:25:01;;;;;;;44.67;25.70;;;;;;;;;;724095;189;919160;-66
2021/12/24 06:27:27;;;;;;;57.30;32.80;;;;;;;;;;732611;189;918439;-65
2021/12/24 06:29:52;;;;;;;54.63;29.33;;;;;;;;;;725426;189;918077;-67
2021/12/24 06:32:18;;;;;;;53.10;26.03;;;;;;;;;;727887;189;1022553;-66
2021/12/24 06:34:44;;;;;;;48.63;25.60;;;;;;;;;;725349;189;916048;-67
2021/12/24 06:37:10;;;;;;;45.80;27.60;;;;;;;;;;712426;193;940308;-66
2021/12/24 06:39:36;;;;;;;53.58;27.17;;;;;;;;;;708369;197;920630;-66
2021/12/24 06:42:03;;;;;;;64.40;30.33;;;;;;;;;;726020;191;1020804;-66
2021/12/24 06:44:28;;;;;;;46.33;27.50;;;;;;;;;;721440;189;917493;-66
2021/12/24 06:46:53;;;;;;;54.75;27.20;;;;;;;;;;723708;189;915918;-66
2021/12/24 06:49:19;;;;;;;51.57;26.73;;;;;;;;;;734046;189;918480;-65
2021/12/24 06:51:45;;;;;;;57.00;32.73;;;;;;;;;;723560;190;916032;-65
2021/12/24 06:54:11;;;;;;;47.03;19.13;;;;;;;;;;722450;189;918541;-64
2021/12/24 06:56:37;;;;;;;55.30;32.67;;;;;;;;;;728813;189;917859;-65
2021/12/24 06:59:03;;;;;;;55.80;29.27;;;;;;;;;;734226;189;921336;-65
2021/12/24 07:01:29;;;;;;;67.05;33.13;;;;;;;;;;725075;190;949983;-64
2021/12/24 07:03:55;;;;;;;46.23;26.20;;;;;;;;;;725070;192;919325;-65
2021/12/24 07:06:22;;;;;;;61.83;28.90;;;;;;;;;;726189;190;921386;-65
2021/12/24 07:08:46;;;;;;;55.13;30.30;;;;;;;;;;720257;190;919291;-65
2021/12/24 07:11:12;;;;;;;61.90;30.90;;;;;;;;;;717479;191;921391;-63
2021/12/24 07:13:38;;;;;;;54.20;28.10;;;;;;;;;;729837;189;920194;-63
2021/12/24 07:16:04;;;;;;;53.60;28.53;;;;;;;;;;727826;189;918849;-64
2021/12/24 07:18:30;;;;;;;52.87;29.20;;;;;;;;;;720978;189;918134;-65
2021/12/24 07:20:56;;;;;;;55.45;30.42;;;;;;;;;;735136;189;919246;-65
2021/12/24 07:23:21;;;;;;;52.90;29.00;;;;;;;;;;726340;189;919356;-64
2021/12/24 07:25:47;;;;;;;50.73;27.67;;;;;;;;;;727833;189;1007435;-64
2021/12/24 07:28:13;;;;;;;51.33;28.23;;;;;;;;;;732914;189;915854;-64
2021/12/24 07:30:39;;;;;;;52.37;29.63;;;;;;;;;;732452;189;915784;-63
2021/12/24 07:33:05;;;;;;;53.17;28.07;;;;;;;;;;719115;193;920009;-64
2021/12/24 07:35:31;;;;;;;51.27;28.97;;;;;;;;;;726647;189;919659;-64
2021/12/24 07:37:56;;;;;;;54.23;28.10;;;;;;;;;;731295;189;918761;-64
2021/12/24 07:40:25;;;;;;;55.30;30.00;;;;;;;;;;723261;189;918046;-64
2021/12/24 07:42:48;;;;;;;51.67;26.00;;;;;;;;;;719177;189;918527;-64
2021/12/24 07:45:14;;;;;;;52.07;28.37;;;;;;;;;;737645;189;919682;-63
2021/12/24 07:47:42;;;;;;;58.43;28.40;;;;;;;;;;730764;190;919590;-64
2021/12/24 07:50:18;;;;;;;55.83;30.30;;;;;;;;;;726614;190;919483;-63
2021/12/24 07:52:32;;;;;;;56.93;27.90;;;;;;;;;;722451;189;919783;-62
2021/12/24 07:54:57;;;;;;;62.90;30.87;;;;;;;;;;723176;189;1020881;-64
2021/12/24 07:57:24;;;;;;;48.27;26.93;;;;;;;;;;726161;189;918647;-62
2021/12/24 07:59:49;;;;;;;50.87;27.10;;;;;;;;;;724028;189;919922;-63
2021/12/24 08:02:15;;;;;;;51.83;25.30;;;;;;;;;;733539;189;918965;-64
2021/12/24 08:04:41;;;;;;;54.70;26.25;;;;;;;;;;728594;189;1020510;-63
2021/12/24 08:07:07;;;;;;;54.97;28.30;;;;;;;;;;724642;189;918494;-63
2021/12/24 08:09:33;;;;;;;56.33;27.30;;;;;;;;;;726530;189;918947;-63
2021/12/24 08:11:58;;;;;;;49.93;27.47;;;;;;;;;;725642;187;918770;-63
2021/12/24 08:14:24;;;;;;;55.93;30.97;;;;;;;;;;730554;189;918729;-63
2021/12/24 08:16:50;;;;;;;67.35;33.90;;;;;;;;;;733429;189;919144;-62
2021/12/24 08:19:18;;;;;;;54.30;29.90;;;;;;;;;;727594;189;918981;-63
2021/12/24 08:21:42;;;;;;;52.90;27.30;;;;;;;;;;726589;189;917524;-63
2021/12/24 08:24:08;;;;;;;50.23;28.07;;;;;;;;;;724467;189;919381;-64
2021/12/24 08:26:34;;;;;;;51.03;29.33;;;;;;;;;;734804;189;919319;-63
2021/12/24 08:28:59;;;;;;;43.50;25.07;;;;;;;;;;731590;189;919469;-64
2021/12/24 08:31:25;;;;;;;47.73;26.33;;;;;;;;;;729116;188;919252;-63
2021/12/24 08:33:51;;;;;;;49.60;29.63;;;;;;;;;;727982;189;918361;-64
2021/12/24 08:36:17;;;;;;;57.77;30.93;;;;;;;;;;726198;189;918485;-65
2021/12/24 08:38:43;;;;;;;55.87;28.90;;;;;;;;;;727994;189;919765;-65
2021/12/24 08:41:09;;;;;;;62.60;30.87;;;;;;;;;;733770;189;1021517;-64
2021/12/24 08:43:35;;;;;;;55.07;29.50;;;;;;;;;;723266;189;919328;-65
2021/12/24 08:46:00;;;;;;;58.67;32.07;;;;;;;;;;726368;189;919978;-65
2021/12/24 08:48:26;;;;;;;53.67;29.80;;;;;;;;;;725687;190;919948;-66
2021/12/24 08:50:52;;;;;;;55.53;28.60;;;;;;;;;;737638;189;816416;-66
2021/12/24 08:53:18;;;;;;;55.43;28.80;;;;;;;;;;727441;189;920387;-65
2021/12/24 08:55:44;;;;;;;54.53;29.58;;;;;;;;;;724034;190;918709;-66
2021/12/24 08:58:10;;;;;;;64.30;29.60;;;;;;;;;;732704;189;915519;-67
2021/12/24 09:00:35;;;;;;;51.40;28.20;;;;;;;;;;727751;190;919243;-65
2021/12/24 09:03:02;;;;;;;48.77;25.90;;;;;;;;;;730896;189;918970;-66
2021/12/24 09:05:27;;;;;;;46.67;24.60;;;;;;;;;;728730;190;919226;-66
2021/12/24 09:07:53;;;;;;;53.28;28.65;;;;;;;;;;720248;190;919319;-67
2021/12/24 09:10:19;;;;;;;47.37;27.87;;;;;;;;;;724960;189;919017;-66
2021/12/24 09:12:46;;;;;;;48.40;27.52;;;;;;;;;;733527;189;927223;-65
2021/12/24 09:15:11;;;;;;;52.93;27.93;;;;;;;;;;728266;189;919335;-67
2021/12/24 09:17:37;;;;;;;56.13;30.03;;;;;;;;;;720270;190;921192;-67
2021/12/24 09:20:03;;;;;;;52.40;30.10;;;;;;;;;;722070;189;919149;-66
2021/12/24 09:22:33;;;;;;;47.03;25.10;;;;;;;;;;728754;189;919849;-66
2021/12/24 09:24:56;;;;;;;56.27;29.67;;;;;;;;;;721100;190;918990;-67
2021/12/24 09:27:21;;;;;;;47.40;28.30;;;;;;;;;;720431;190;919870;-67
2021/12/24 09:29:47;;;;;;;52.73;28.50;;;;;;;;;;729689;189;918561;-66
2021/12/24 09:32:13;;;;;;;49.73;29.07;;;;;;;;;;725815;189;920221;-66
2021/12/24 09:34:39;;;;;;;44.63;27.00;;;;;;;;;;729908;189;918922;-66
2021/12/24 09:37:05;;;;;;;57.40;29.50;;;;;;;;;;729798;189;919075;-67
2021/12/24 09:39:30;;;;;;;50.90;30.07;;;;;;;;;;728695;189;919589;-66
2021/12/24 09:41:56;;;;;;;47.40;27.80;;;;;;;;;;721724;189;944537;-66
2021/12/24 09:44:22;;;;;;;44.23;25.17;;;;;;;;;;725170;189;918620;-67
2021/12/24 09:46:48;;;;;;;49.67;27.50;;;;;;;;;;732243;189;913199;-69
2021/12/24 09:49:14;;;;;;;46.23;27.47;;;;;;;;;;726397;189;919413;-66
2021/12/24 09:51:41;;;;;;;45.47;27.47;;;;;;;;;;728438;189;918333;-66
2021/12/24 09:54:08;;;;;;;44.00;22.70;;;;;;;;;;728925;189;918051;-68
2021/12/24 09:56:33;;;;;;;40.27;24.10;;;;;;;;;;727635;186;918636;-67
2021/12/24 09:58:59;;;;;;;49.93;25.87;;;;;;;;;;722516;189;919187;-67
2021/12/24 10:01:28;;;;;;;40.67;23.33;;;;;;;;;;729395;189;917681;-67
2021/12/24 10:03:54;;;;;;;48.60;25.10;;;;;;;;;;735896;189;918730;-66
2021/12/24 10:06:20;;;;;;;44.63;26.47;;;;;;;;;;715703;193;918109;-67
2021/12/24 10:08:46;;;;;;;39.47;23.50;;;;;;;;;;727579;189;919173;-68
2021/12/24 10:11:14;;;;;;;46.07;26.17;;;;;;;;;;731527;189;812216;-68
2021/12/24 10:13:41;;;;;;;52.30;26.80;;;;;;;;;;729508;189;919055;-67
2021/12/24 10:16:06;;;;;;;54.43;28.70;;;;;;;;;;731773;189;902462;-67
2021/12/24 10:18:31;;;;;;;47.60;28.43;;;;;;;;;;725693;189;915914;-67
2021/12/24 10:20:57;;;;;;;46.23;25.80;;;;;;;;;;721549;189;915420;-67
2021/12/24 10:23:29;;;;;;;52.67;27.63;;;;;;;;;;723232;189;919581;-68
2021/12/24 10:25:55;;;;;;;52.20;26.53;;;;;;;;;;714817;189;2044419;-68
2021/12/24 10:28:21;;;;;;;47.13;23.27;;;;;;;;;;727876;189;918967;-68
2021/12/24 10:30:46;;;;;;;63.73;27.07;;;;;;;;;;725079;189;918200;-68
2021/12/24 10:33:13;;;;;;;51.13;26.57;;;;;;;;;;726419;189;919228;-68
2021/12/24 10:35:38;;;;;;;48.33;25.53;;;;;;;;;;735684;189;919309;-68
2021/12/24 10:38:08;;;;;;;49.30;25.90;;;;;;;;;;727488;189;920190;-68
2021/12/24 10:40:34;;;;;;;47.67;25.30;;;;;;;;;;727522;189;918281;-67
2021/12/24 10:43:00;;;;;;;47.77;26.87;;;;;;;;;;722272;189;918371;-67
2021/12/24 10:45:26;;;;;;;55.27;27.87;;;;;;;;;;727280;189;918952;-66
2021/12/24 10:47:51;;;;;;;43.20;26.13;;;;;;;;;;726898;189;918448;-66
2021/12/24 10:50:30;;;;;;;50.77;26.63;;;;;;;;;;720147;190;919601;-69
2021/12/24 10:53:10;;;;;;;41.93;25.40;;;;;;;;;;727957;187;918569;-68
2021/12/24 10:55:25;;;;;;;45.23;25.33;;;;;;;;;;730756;189;918270;-68
2021/12/24 10:57:51;;;;;;;52.17;28.35;;;;;;;;;;726932;189;919277;-67
2021/12/24 11:00:17;;;;;;;39.77;23.30;;;;;;;;;;725833;189;919022;-68
2021/12/24 11:02:43;;;;;;;41.27;25.07;;;;;;;;;;728654;189;923785;-67
2021/12/24 11:05:15;;;;;;;37.10;21.17;;;;;;;;;;724083;189;918567;-67
2021/12/24 11:07:41;;;;;;;37.10;22.40;;;;;;;;;;731117;189;919057;-68
2021/12/24 11:10:11;;;;;;;38.07;22.93;;;;;;;;;;728499;189;919425;-68
2021/12/24 11:12:36;;;;;;;39.20;23.33;;;;;;;;;;730157;189;919600;-68
2021/12/24 11:15:02;;;;;;;40.37;24.70;;;;;;;;;;721388;189;919175;-68
2021/12/24 11:17:34;;;;;;;41.33;23.55;;;;;;;;;;725110;189;917022;-68
2021/12/24 11:20:02;;;;;;;35.03;19.87;;;;;;;;;;721325;189;968179;-66
2021/12/24 11:22:25;;;;;;;34.00;21.27;;;;;;;;;;729132;189;913638;-67
2021/12/24 11:24:51;;;;;;;31.93;18.60;;;;;;;;;;725895;189;916578;-67
2021/12/24 11:27:17;;;;;;;36.80;18.23;;;;;;;;;;728453;186;915388;-67
2021/12/24 11:29:43;;;;;;;29.77;16.45;;;;;;;;;;731018;189;911105;-67
2021/12/24 11:32:09;;;;;;;29.93;19.03;;;;;;;;;;734778;187;817051;-66
2021/12/24 11:34:35;;;;;;;28.00;16.57;;;;;;;;;;729338;189;921318;-67
2021/12/24 11:37:01;;;;;;;34.38;18.95;;;;;;;;;;725144;189;918493;-65
2021/12/24 11:39:26;;;;;;;32.47;18.43;;;;;;;;;;727402;189;918778;-66
2021/12/24 11:41:52;;;;;;;29.27;17.93;;;;;;;;;;730754;189;919925;-65
2021/12/24 11:44:18;;;;;;;26.57;17.00;;;;;;;;;;725797;189;924426;-66
2021/12/24 11:46:44;;;;;;;32.77;18.40;;;;;;;;;;729296;189;918962;-65
2021/12/24 11:49:10;;;;;;;36.20;19.23;;;;;;;;;;724394;189;919750;-65
2021/12/24 11:51:40;;;;;;;38.23;19.83;;;;;;;;;;722322;189;969239;-66
2021/12/24 11:54:03;;;;;;;39.20;24.60;;;;;;;;;;730508;189;924192;-65
2021/12/24 11:56:29;;;;;;;31.50;19.10;;;;;;;;;;721667;189;1115601;-65
2021/12/24 11:58:55;;;;;;;35.38;20.40;;;;;;;;;;723011;189;919018;-65
2021/12/24 12:01:21;;;;;;;30.40;18.35;;;;;;;;;;728202;189;919353;-64
2021/12/24 12:03:49;;;;;;;26.90;18.90;;;;;;;;;;728320;189;928582;-65
2021/12/24 12:06:33;;;;;;;30.13;18.83;;;;;;;;;;729225;189;918404;-66
2021/12/24 12:08:58;;;;;;;29.23;15.80;;;;;;;;;;724160;189;927038;-66
2021/12/24 12:11:24;;;;;;;30.97;16.70;;;;;;;;;;722918;189;919381;-66
2021/12/24 12:13:53;;;;;;;38.03;18.70;;;;;;;;;;730430;189;919680;-66
2021/12/24 12:16:19;;;;;;;25.07;16.17;;;;;;;;;;728014;189;919351;-65
2021/12/24 12:18:49;;;;;;;36.97;19.37;;;;;;;;;;726015;189;914203;-66
2021/12/24 12:21:14;;;;;;;35.33;18.83;;;;;;;;;;723192;189;919323;-66
2021/12/24 12:23:51;;;;;;;38.37;18.80;;;;;;;;;;735210;187;918426;-66
2021/12/24 12:26:16;;;;;;;28.20;17.70;;;;;;;;;;714692;193;919081;-65
2021/12/24 12:28:41;;;;;;;32.00;17.92;;;;;;;;;;726879;189;919430;-66
2021/12/24 12:31:07;;;;;;;24.37;16.07;;;;;;;;;;723679;189;922708;-66
2021/12/24 12:33:35;;;;;;;24.17;14.93;;;;;;;;;;727662;189;919456;-66
2021/12/24 12:35:59;;;;;;;23.03;14.10;;;;;;;;;;712914;193;918624;-66
2021/12/24 12:38:25;;;;;;;26.10;16.70;;;;;;;;;;728168;189;918852;-64
2021/12/24 12:40:51;;;;;;;24.67;16.55;;;;;;;;;;730831;189;919347;-66
2021/12/24 12:43:17;;;;;;;30.93;16.70;;;;;;;;;;724906;189;920783;-66
2021/12/24 12:45:50;;;;;;;26.90;16.67;;;;;;;;;;724254;189;919388;-66
2021/12/24 12:48:22;;;;;;;24.23;17.13;;;;;;;;;;723845;189;922031;-65
2021/12/24 12:50:42;;;;;;;21.70;15.77;;;;;;;;;;728834;189;919291;-65
2021/12/24 12:53:14;;;;;;;26.13;16.00;;;;;;;;;;727544;189;917133;-64
2021/12/24 12:55:40;;;;;;;25.33;16.27;;;;;;;;;;722621;189;919337;-67
2021/12/24 12:58:11;;;;;;;32.70;15.67;;;;;;;;;;731406;189;917643;-65
2021/12/24 13:00:37;;;;;;;31.00;16.67;;;;;;;;;;736403;189;917666;-65
2021/12/24 13:03:08;;;;;;;25.00;16.43;;;;;;;;;;715842;191;1124478;-65
2021/12/24 13:05:53;;;;;;;32.37;17.83;;;;;;;;;;704010;196;983987;-65
2021/12/24 13:08:21;;;;;;;27.00;16.63;;;;;;;;;;707191;196;1022953;-64
2021/12/24 13:10:52;;;;;;;31.33;14.43;;;;;;;;;;716919;194;919044;-63
2021/12/24 13:13:17;;;;;;;20.53;12.73;;;;;;;;;;711270;194;917458;-65
2021/12/24 13:15:44;;;;;;;22.03;14.40;;;;;;;;;;715618;193;919186;-64
2021/12/24 13:18:23;;;;;;;25.65;14.90;;;;;;;;;;731952;189;919353;-65
2021/12/24 13:22:26;;;;;;;26.90;16.50;;;;;;;;;;725907;189;945133;-65
2021/12/24 13:23:17;;;;;;;20.50;12.13;;;;;;;;;;726861;189;919179;-63
2021/12/24 13:25:42;;;;;;;24.07;14.70;;;;;;;;;;711807;193;919485;-63
2021/12/24 13:28:08;;;;;;;27.30;15.13;;;;;;;;;;708232;196;934871;-65
2021/12/24 13:30:34;;;;;;;23.03;14.77;;;;;;;;;;711053;196;919253;-65
2021/12/24 13:33:00;;;;;;;19.05;12.80;;;;;;;;;;713705;194;922139;-64
2021/12/24 13:35:28;;;;;;;20.60;13.23;;;;;;;;;;725783;189;920545;-64
2021/12/24 13:37:55;;;;;;;20.47;13.20;;;;;;;;;;722286;189;918647;-63
2021/12/24 13:40:21;;;;;;;21.43;12.27;;;;;;;;;;731856;189;915333;-65
2021/12/24 13:42:47;;;;;;;23.33;13.87;;;;;;;;;;723571;189;920869;-64
2021/12/24 13:45:13;;;;;;;26.13;13.67;;;;;;;;;;710355;191;921228;-63
2021/12/24 13:48:15;;;;;;;22.13;12.47;;;;;;;;;;730929;186;916790;-64
2021/12/24 13:50:32;;;;;;;19.40;12.70;;;;;;;;;;734764;189;924951;-65
2021/12/24 13:55:19;;;;;;;17.07;11.33;;;;;;;;;;723748;191;922053;-66
2021/12/24 13:57:53;;;;;;;15.00;9.67;;;;;;;;;;726042;191;912655;-64
2021/12/24 14:00:19;;;;;;;14.97;9.50;;;;;;;;;;728916;189;915504;-64
2021/12/24 14:02:51;;;;;;;17.00;11.00;;;;;;;;;;727652;189;919047;-64
2021/12/24 14:05:18;;;;;;;16.60;10.67;;;;;;;;;;726045;189;920835;-63
2021/12/24 14:07:46;;;;;;;17.03;10.07;;;;;;;;;;727598;189;909870;-64
2021/12/24 14:10:15;;;;;;;14.68;10.23;;;;;;;;;;728987;189;1121562;-62
2021/12/24 14:12:40;;;;;;;16.93;9.40;;;;;;;;;;724644;189;918095;-63
2021/12/24 14:15:10;;;;;;;12.90;9.77;;;;;;;;;;721178;189;919381;-63
2021/12/24 14:17:49;;;;;;;12.07;9.30;;;;;;;;;;723915;189;918424;-63
2021/12/24 14:20:06;;;;;;;13.37;9.43;;;;;;;;;;727674;189;918287;-62
2021/12/24 14:22:27;;;;;;;16.57;10.40;;;;;;;;;;723646;189;917877;-61
2021/12/24 14:24:52;;;;;;;14.77;9.60;;;;;;;;;;722096;187;918816;-64
2021/12/24 14:27:17;;;;;;;13.00;9.00;;;;;;;;;;731580;189;916414;-64
2021/12/24 14:29:43;;;;;;;12.27;7.85;;;;;;;;;;727161;189;928592;-62
2021/12/24 14:32:10;;;;;;;14.33;8.47;;;;;;;;;;725351;189;919499;-63
2021/12/24 14:34:44;;;;;;;18.57;9.03;;;;;;;;;;729161;189;919562;-61
2021/12/24 14:37:16;;;;;;;10.70;6.80;;;;;;;;;;726001;189;917543;-64
2021/12/24 14:39:44;;;;;;;12.57;7.73;;;;;;;;;;729440;189;922531;-64
2021/12/24 14:42:11;;;;;;;9.07;6.63;;;;;;;;;;725129;189;918598;-65
2021/12/24 14:44:37;;;;;;;9.17;6.90;;;;;;;;;;725986;189;919312;-64
2021/12/24 14:47:03;;;;;;;12.83;7.93;;;;;;;;;;731700;189;918174;-64
2021/12/24 14:49:30;;;;;;;12.40;7.90;;;;;;;;;;722836;189;918767;-66
2021/12/24 14:51:56;;;;;;;8.10;5.47;;;;;;;;;;724508;189;920436;-64
2021/12/24 14:54:22;;;;;;;9.13;6.13;;;;;;;;;;728758;189;919710;-63
2021/12/24 14:56:48;;;;;;;8.93;6.00;;;;;;;;;;724606;189;1021106;-64
2021/12/24 14:59:13;;;;;;;8.67;5.60;;;;;;;;;;726655;189;919556;-65
2021/12/24 15:01:44;;;;;;;10.00;6.97;;;;;;;;;;722482;189;919148;-66
2021/12/24 15:04:05;;;;;;;5.40;4.23;;;;;;;;;;721261;189;924594;-64
2021/12/24 15:06:32;;;;;;;7.43;4.63;;;;;;;;;;727777;189;918887;-64
2021/12/24 15:08:59;;;;;;;7.03;5.03;;;;;;;;;;724899;189;919484;-65
2021/12/24 15:11:25;;;;;;;9.75;5.90;;;;;;;;;;726594;191;1020725;-65
2021/12/24 15:13:51;;;;;;;11.60;7.37;;;;;;;;;;724700;189;920726;-64
2021/12/24 15:16:16;;;;;;;11.50;6.67;;;;;;;;;;724626;189;918411;-64
2021/12/24 15:18:43;;;;;;;10.33;7.40;;;;;;;;;;727321;189;918801;-64